sensor_id;sensor_type;location;lat;lon;timestamp;temperature;humidity
37846;DHT22;23686;49.828;8.702;2022-12-07T00:01:19;5.10;74.70
37846;DHT22;23686;49.828;8.702;2022-12-07T00:03:46;5.10;77.10
37846;DHT22;23686;49.828;8.702;2022-12-07T00:06:13;5.10;75.00
37846;DHT22;23686;49.828;8.702;2022-12-07T00:08:39;5.10;75.80
37846;DHT22;23686;49.828;8.702;2022-12-07T00:11:13;5.10;74.30
37846;DHT22;23686;49.828;8.702;2022-12-07T00:13:39;5.10;75.20
37846;DHT22;23686;49.828;8.702;2022-12-07T00:18:32;5.00;75.90
37846;DHT22;23686;49.828;8.702;2022-12-07T00:21:03;5.00;74.20
37846;DHT22;23686;49.828;8.702;2022-12-07T00:23:29;5.10;73.70
37846;DHT22;23686;49.828;8.702;2022-12-07T00:25:55;5.10;73.10
37846;DHT22;23686;49.828;8.702;2022-12-07T00:28:20;5.00;73.90
37846;DHT22;23686;49.828;8.702;2022-12-07T00:30:46;5.10;72.20
37846;DHT22;23686;49.828;8.702;2022-12-07T00:33:11;5.10;72.30
37846;DHT22;23686;49.828;8.702;2022-12-07T00:35:37;5.10;72.10
37846;DHT22;23686;49.828;8.702;2022-12-07T00:38:02;5.10;72.80
37846;DHT22;23686;49.828;8.702;2022-12-07T00:40:28;5.10;72.10
37846;DHT22;23686;49.828;8.702;2022-12-07T00:42:53;5.10;73.30
37846;DHT22;23686;49.828;8.702;2022-12-07T00:45:19;5.10;72.90
37846;DHT22;23686;49.828;8.702;2022-12-07T00:47:44;5.20;73.20
37846;DHT22;23686;49.828;8.702;2022-12-07T00:50:10;5.10;71.90
37846;DHT22;23686;49.828;8.702;2022-12-07T00:52:35;5.10;72.60
37846;DHT22;23686;49.828;8.702;2022-12-07T00:55:01;5.10;70.90
37846;DHT22;23686;49.828;8.702;2022-12-07T00:57:27;5.10;71.30
37846;DHT22;23686;49.828;8.702;2022-12-07T00:59:53;5.10;72.30
37846;DHT22;23686;49.828;8.702;2022-12-07T01:02:21;5.20;71.80
37846;DHT22;23686;49.828;8.702;2022-12-07T01:04:47;5.20;73.30
37846;DHT22;23686;49.828;8.702;2022-12-07T01:07:13;5.20;73.40
37846;DHT22;23686;49.828;8.702;2022-12-07T01:09:38;5.10;73.50
37846;DHT22;23686;49.828;8.702;2022-12-07T01:12:04;5.10;71.40
37846;DHT22;23686;49.828;8.702;2022-12-07T01:14:29;5.10;72.20
37846;DHT22;23686;49.828;8.702;2022-12-07T01:16:55;5.10;73.20
37846;DHT22;23686;49.828;8.702;2022-12-07T01:19:20;5.10;72.60
37846;DHT22;23686;49.828;8.702;2022-12-07T01:21:46;5.10;72.20
37846;DHT22;23686;49.828;8.702;2022-12-07T01:24:11;5.20;73.30
37846;DHT22;23686;49.828;8.702;2022-12-07T01:26:37;5.20;74.30
37846;DHT22;23686;49.828;8.702;2022-12-07T01:29:03;5.20;74.30
37846;DHT22;23686;49.828;8.702;2022-12-07T01:31:29;5.20;74.00
37846;DHT22;23686;49.828;8.702;2022-12-07T01:33:57;5.20;75.10
37846;DHT22;23686;49.828;8.702;2022-12-07T01:38:54;5.20;75.00
37846;DHT22;23686;49.828;8.702;2022-12-07T01:41:22;5.20;75.50
37846;DHT22;23686;49.828;8.702;2022-12-07T01:44:14;5.20;74.50
37846;DHT22;23686;49.828;8.702;2022-12-07T01:46:41;5.30;75.40
37846;DHT22;23686;49.828;8.702;2022-12-07T01:49:12;5.30;76.80
37846;DHT22;23686;49.828;8.702;2022-12-07T01:51:40;5.30;78.40
37846;DHT22;23686;49.828;8.702;2022-12-07T01:54:08;5.30;78.10
37846;DHT22;23686;49.828;8.702;2022-12-07T01:56:36;5.30;76.40
37846;DHT22;23686;49.828;8.702;2022-12-07T01:59:03;5.30;76.50
37846;DHT22;23686;49.828;8.702;2022-12-07T02:01:29;5.40;76.40
37846;DHT22;23686;49.828;8.702;2022-12-07T02:03:54;5.40;78.20
37846;DHT22;23686;49.828;8.702;2022-12-07T02:06:23;5.30;79.30
37846;DHT22;23686;49.828;8.702;2022-12-07T02:08:49;5.30;80.50
37846;DHT22;23686;49.828;8.702;2022-12-07T02:11:15;5.20;81.00
37846;DHT22;23686;49.828;8.702;2022-12-07T02:13:42;5.20;79.80
37846;DHT22;23686;49.828;8.702;2022-12-07T02:19:04;5.10;79.80
37846;DHT22;23686;49.828;8.702;2022-12-07T02:21:53;5.10;79.30
37846;DHT22;23686;49.828;8.702;2022-12-07T02:30:29;5.10;79.70
37846;DHT22;23686;49.828;8.702;2022-12-07T02:33:00;5.10;78.00
37846;DHT22;23686;49.828;8.702;2022-12-07T02:35:32;5.10;76.40
37846;DHT22;23686;49.828;8.702;2022-12-07T02:38:14;5.10;77.90
37846;DHT22;23686;49.828;8.702;2022-12-07T02:40:52;5.10;76.80
37846;DHT22;23686;49.828;8.702;2022-12-07T02:43:24;5.20;80.70
37846;DHT22;23686;49.828;8.702;2022-12-07T02:45:58;5.20;81.70
37846;DHT22;23686;49.828;8.702;2022-12-07T02:48:26;5.20;82.80
37846;DHT22;23686;49.828;8.702;2022-12-07T02:50:53;5.20;84.30
37846;DHT22;23686;49.828;8.702;2022-12-07T02:53:43;5.20;82.80
37846;DHT22;23686;49.828;8.702;2022-12-07T03:01:59;5.30;83.10
37846;DHT22;23686;49.828;8.702;2022-12-07T03:04:40;5.30;83.30
37846;DHT22;23686;49.828;8.702;2022-12-07T03:12:51;5.30;86.80
37846;DHT22;23686;49.828;8.702;2022-12-07T03:15:43;5.30;87.40
37846;DHT22;23686;49.828;8.702;2022-12-07T03:18:11;5.40;87.70
37846;DHT22;23686;49.828;8.702;2022-12-07T03:20:39;5.40;88.40
37846;DHT22;23686;49.828;8.702;2022-12-07T03:23:08;5.30;87.70
37846;DHT22;23686;49.828;8.702;2022-12-07T03:25:35;5.30;84.70
37846;DHT22;23686;49.828;8.702;2022-12-07T03:28:05;5.30;83.50
37846;DHT22;23686;49.828;8.702;2022-12-07T03:30:44;5.30;81.50
37846;DHT22;23686;49.828;8.702;2022-12-07T03:33:18;5.30;79.90
37846;DHT22;23686;49.828;8.702;2022-12-07T03:35:58;5.30;78.90
37846;DHT22;23686;49.828;8.702;2022-12-07T03:38:30;5.30;78.70
37846;DHT22;23686;49.828;8.702;2022-12-07T03:41:01;5.30;77.10
37846;DHT22;23686;49.828;8.702;2022-12-07T03:43:31;5.20;77.90
37846;DHT22;23686;49.828;8.702;2022-12-07T03:51:31;5.10;76.40
37846;DHT22;23686;49.828;8.702;2022-12-07T03:54:14;5.10;73.90
37846;DHT22;23686;49.828;8.702;2022-12-07T03:56:42;5.10;73.60
37846;DHT22;23686;49.828;8.702;2022-12-07T03:59:09;5.10;71.60
37846;DHT22;23686;49.828;8.702;2022-12-07T04:01:36;5.10;71.20
37846;DHT22;23686;49.828;8.702;2022-12-07T04:04:02;5.10;71.20
37846;DHT22;23686;49.828;8.702;2022-12-07T04:06:27;5.20;70.00
37846;DHT22;23686;49.828;8.702;2022-12-07T04:08:53;5.20;69.50
37846;DHT22;23686;49.828;8.702;2022-12-07T04:11:18;5.10;68.10
37846;DHT22;23686;49.828;8.702;2022-12-07T04:13:44;5.20;67.50
37846;DHT22;23686;49.828;8.702;2022-12-07T04:16:28;5.10;69.10
37846;DHT22;23686;49.828;8.702;2022-12-07T04:18:53;5.20;69.60
37846;DHT22;23686;49.828;8.702;2022-12-07T04:21:19;5.10;69.90
37846;DHT22;23686;49.828;8.702;2022-12-07T04:23:44;5.20;69.10
37846;DHT22;23686;49.828;8.702;2022-12-07T04:26:10;5.20;68.10
37846;DHT22;23686;49.828;8.702;2022-12-07T04:28:35;5.10;67.30
37846;DHT22;23686;49.828;8.702;2022-12-07T04:31:01;5.10;65.90
37846;DHT22;23686;49.828;8.702;2022-12-07T04:33:26;5.10;66.20
37846;DHT22;23686;49.828;8.702;2022-12-07T04:35:52;5.10;65.30
37846;DHT22;23686;49.828;8.702;2022-12-07T04:38:17;5.10;66.60
37846;DHT22;23686;49.828;8.702;2022-12-07T04:40:43;5.10;66.10
37846;DHT22;23686;49.828;8.702;2022-12-07T04:43:08;5.10;67.70
37846;DHT22;23686;49.828;8.702;2022-12-07T04:45:34;5.10;67.50
37846;DHT22;23686;49.828;8.702;2022-12-07T04:47:59;5.10;67.70
37846;DHT22;23686;49.828;8.702;2022-12-07T04:50:25;5.10;69.80
37846;DHT22;23686;49.828;8.702;2022-12-07T04:52:54;5.10;67.90
37846;DHT22;23686;49.828;8.702;2022-12-07T04:55:19;5.10;67.20
37846;DHT22;23686;49.828;8.702;2022-12-07T04:57:45;5.10;67.50
37846;DHT22;23686;49.828;8.702;2022-12-07T05:00:12;5.10;68.00
37846;DHT22;23686;49.828;8.702;2022-12-07T05:02:37;5.10;67.90
37846;DHT22;23686;49.828;8.702;2022-12-07T05:05:03;5.10;68.00
37846;DHT22;23686;49.828;8.702;2022-12-07T05:07:29;5.10;67.60
37846;DHT22;23686;49.828;8.702;2022-12-07T05:09:54;5.10;67.30
37846;DHT22;23686;49.828;8.702;2022-12-07T05:12:20;5.10;68.80
37846;DHT22;23686;49.828;8.702;2022-12-07T05:14:45;5.10;67.60
37846;DHT22;23686;49.828;8.702;2022-12-07T05:17:11;5.10;68.00
37846;DHT22;23686;49.828;8.702;2022-12-07T05:19:37;5.10;64.40
37846;DHT22;23686;49.828;8.702;2022-12-07T05:22:02;5.10;63.90
37846;DHT22;23686;49.828;8.702;2022-12-07T05:24:28;5.10;63.10
37846;DHT22;23686;49.828;8.702;2022-12-07T05:26:53;5.10;62.30
37846;DHT22;23686;49.828;8.702;2022-12-07T05:29:19;5.10;63.50
37846;DHT22;23686;49.828;8.702;2022-12-07T05:31:45;5.10;63.80
37846;DHT22;23686;49.828;8.702;2022-12-07T05:34:11;5.10;64.00
37846;DHT22;23686;49.828;8.702;2022-12-07T05:36:37;5.10;62.60
37846;DHT22;23686;49.828;8.702;2022-12-07T05:39:02;5.10;63.60
37846;DHT22;23686;49.828;8.702;2022-12-07T05:41:28;5.20;65.10
37846;DHT22;23686;49.828;8.702;2022-12-07T05:44:12;5.20;65.70
37846;DHT22;23686;49.828;8.702;2022-12-07T05:46:38;5.20;64.10
37846;DHT22;23686;49.828;8.702;2022-12-07T05:49:03;5.20;65.90
37846;DHT22;23686;49.828;8.702;2022-12-07T05:51:29;5.20;66.00
37846;DHT22;23686;49.828;8.702;2022-12-07T05:53:55;5.20;65.70
37846;DHT22;23686;49.828;8.702;2022-12-07T05:56:21;5.20;66.40
37846;DHT22;23686;49.828;8.702;2022-12-07T05:58:46;5.20;66.30
37846;DHT22;23686;49.828;8.702;2022-12-07T06:01:30;5.20;67.70
37846;DHT22;23686;49.828;8.702;2022-12-07T06:03:56;5.20;70.80
37846;DHT22;23686;49.828;8.702;2022-12-07T06:06:21;5.20;68.50
37846;DHT22;23686;49.828;8.702;2022-12-07T06:08:47;5.20;68.90
37846;DHT22;23686;49.828;8.702;2022-12-07T06:11:12;5.30;68.40
37846;DHT22;23686;49.828;8.702;2022-12-07T06:16:22;5.20;70.10
37846;DHT22;23686;49.828;8.702;2022-12-07T06:18:48;5.20;69.30
37846;DHT22;23686;49.828;8.702;2022-12-07T06:21:13;5.20;69.90
37846;DHT22;23686;49.828;8.702;2022-12-07T06:23:39;5.20;68.60
37846;DHT22;23686;49.828;8.702;2022-12-07T06:26:05;5.20;67.90
37846;DHT22;23686;49.828;8.702;2022-12-07T06:28:30;5.20;68.40
37846;DHT22;23686;49.828;8.702;2022-12-07T06:30:57;5.30;69.40
37846;DHT22;23686;49.828;8.702;2022-12-07T06:33:24;5.30;70.00
37846;DHT22;23686;49.828;8.702;2022-12-07T06:35:49;5.30;70.50
37846;DHT22;23686;49.828;8.702;2022-12-07T06:38:15;5.30;70.90
37846;DHT22;23686;49.828;8.702;2022-12-07T06:40:40;5.30;71.90
37846;DHT22;23686;49.828;8.702;2022-12-07T06:43:06;5.30;70.70
37846;DHT22;23686;49.828;8.702;2022-12-07T06:45:31;5.30;71.40
37846;DHT22;23686;49.828;8.702;2022-12-07T06:47:57;5.30;70.30
37846;DHT22;23686;49.828;8.702;2022-12-07T06:50:23;5.30;70.00
37846;DHT22;23686;49.828;8.702;2022-12-07T06:52:48;5.30;69.80
37846;DHT22;23686;49.828;8.702;2022-12-07T06:55:14;5.30;70.50
37846;DHT22;23686;49.828;8.702;2022-12-07T06:57:39;5.30;71.00
37846;DHT22;23686;49.828;8.702;2022-12-07T07:00:05;5.30;71.80
37846;DHT22;23686;49.828;8.702;2022-12-07T07:02:31;5.40;73.00
37846;DHT22;23686;49.828;8.702;2022-12-07T07:04:57;5.30;70.20
37846;DHT22;23686;49.828;8.702;2022-12-07T07:07:22;5.40;73.30
37846;DHT22;23686;49.828;8.702;2022-12-07T07:09:48;5.40;72.80
37846;DHT22;23686;49.828;8.702;2022-12-07T07:12:13;5.40;72.70
37846;DHT22;23686;49.828;8.702;2022-12-07T07:14:39;5.40;70.80
37846;DHT22;23686;49.828;8.702;2022-12-07T07:17:04;5.40;72.20
37846;DHT22;23686;49.828;8.702;2022-12-07T07:19:30;5.40;72.90
37846;DHT22;23686;49.828;8.702;2022-12-07T07:21:56;5.40;72.10
37846;DHT22;23686;49.828;8.702;2022-12-07T07:24:21;5.40;74.20
37846;DHT22;23686;49.828;8.702;2022-12-07T07:26:47;5.40;74.30
37846;DHT22;23686;49.828;8.702;2022-12-07T07:29:12;5.40;73.00
37846;DHT22;23686;49.828;8.702;2022-12-07T07:31:38;5.40;74.40
37846;DHT22;23686;49.828;8.702;2022-12-07T07:34:04;5.40;74.80
37846;DHT22;23686;49.828;8.702;2022-12-07T07:36:29;5.40;73.30
37846;DHT22;23686;49.828;8.702;2022-12-07T07:38:55;5.40;75.30
37846;DHT22;23686;49.828;8.702;2022-12-07T07:41:20;5.40;74.00
37846;DHT22;23686;49.828;8.702;2022-12-07T07:43:46;5.40;74.00
37846;DHT22;23686;49.828;8.702;2022-12-07T07:46:11;5.40;74.10
37846;DHT22;23686;49.828;8.702;2022-12-07T07:48:37;5.50;74.10
37846;DHT22;23686;49.828;8.702;2022-12-07T07:51:06;5.50;73.60
37846;DHT22;23686;49.828;8.702;2022-12-07T07:53:32;5.50;74.30
37846;DHT22;23686;49.828;8.702;2022-12-07T07:55:58;5.50;75.40
37846;DHT22;23686;49.828;8.702;2022-12-07T07:58:24;5.50;74.80
37846;DHT22;23686;49.828;8.702;2022-12-07T08:00:49;5.50;75.10
37846;DHT22;23686;49.828;8.702;2022-12-07T08:03:15;5.60;75.70
37846;DHT22;23686;49.828;8.702;2022-12-07T08:05:40;5.60;76.40
37846;DHT22;23686;49.828;8.702;2022-12-07T08:08:06;5.60;77.90
37846;DHT22;23686;49.828;8.702;2022-12-07T08:10:31;5.60;77.80
37846;DHT22;23686;49.828;8.702;2022-12-07T08:12:58;5.60;78.10
37846;DHT22;23686;49.828;8.702;2022-12-07T08:15:36;5.70;77.70
37846;DHT22;23686;49.828;8.702;2022-12-07T08:18:02;5.70;77.10
37846;DHT22;23686;49.828;8.702;2022-12-07T08:20:30;5.70;77.10
37846;DHT22;23686;49.828;8.702;2022-12-07T08:22:55;5.80;78.60
37846;DHT22;23686;49.828;8.702;2022-12-07T08:25:21;5.80;80.50
37846;DHT22;23686;49.828;8.702;2022-12-07T08:27:50;5.80;79.90
37846;DHT22;23686;49.828;8.702;2022-12-07T08:30:16;5.80;79.80
37846;DHT22;23686;49.828;8.702;2022-12-07T08:32:41;5.90;80.00
37846;DHT22;23686;49.828;8.702;2022-12-07T08:35:07;5.90;80.10
37846;DHT22;23686;49.828;8.702;2022-12-07T08:37:33;5.90;81.50
37846;DHT22;23686;49.828;8.702;2022-12-07T08:39:59;5.90;81.70
37846;DHT22;23686;49.828;8.702;2022-12-07T08:42:24;5.90;81.30
37846;DHT22;23686;49.828;8.702;2022-12-07T08:44:55;5.90;81.50
37846;DHT22;23686;49.828;8.702;2022-12-07T08:47:22;6.00;82.60
37846;DHT22;23686;49.828;8.702;2022-12-07T08:49:50;6.00;84.50
37846;DHT22;23686;49.828;8.702;2022-12-07T08:52:17;6.00;81.40
37846;DHT22;23686;49.828;8.702;2022-12-07T08:54:43;6.00;82.00
37846;DHT22;23686;49.828;8.702;2022-12-07T08:57:10;6.10;83.00
37846;DHT22;23686;49.828;8.702;2022-12-07T08:59:36;6.00;85.00
37846;DHT22;23686;49.828;8.702;2022-12-07T09:02:03;6.00;85.40
37846;DHT22;23686;49.828;8.702;2022-12-07T09:04:29;6.00;83.90
37846;DHT22;23686;49.828;8.702;2022-12-07T09:06:55;6.00;85.40
37846;DHT22;23686;49.828;8.702;2022-12-07T09:09:20;6.00;84.20
37846;DHT22;23686;49.828;8.702;2022-12-07T09:11:46;5.90;83.80
37846;DHT22;23686;49.828;8.702;2022-12-07T09:14:12;5.90;83.50
37846;DHT22;23686;49.828;8.702;2022-12-07T09:16:38;5.90;84.80
37846;DHT22;23686;49.828;8.702;2022-12-07T09:19:04;6.10;47.00
37846;DHT22;23686;49.828;8.702;2022-12-07T09:21:30;6.30;79.20
37846;DHT22;23686;49.828;8.702;2022-12-07T09:23:55;6.40;83.50
37846;DHT22;23686;49.828;8.702;2022-12-07T09:26:21;6.50;90.60
37846;DHT22;23686;49.828;8.702;2022-12-07T09:28:47;6.50;90.10
37846;DHT22;23686;49.828;8.702;2022-12-07T09:31:12;6.50;90.40
37846;DHT22;23686;49.828;8.702;2022-12-07T09:33:38;6.50;90.60
37846;DHT22;23686;49.828;8.702;2022-12-07T09:36:04;6.40;89.50
37846;DHT22;23686;49.828;8.702;2022-12-07T09:38:30;6.40;90.10
37846;DHT22;23686;49.828;8.702;2022-12-07T09:40:57;6.40;89.90
37846;DHT22;23686;49.828;8.702;2022-12-07T09:43:24;6.50;90.40
37846;DHT22;23686;49.828;8.702;2022-12-07T09:45:54;6.50;91.40
37846;DHT22;23686;49.828;8.702;2022-12-07T09:50:51;6.70;91.90
37846;DHT22;23686;49.828;8.702;2022-12-07T09:53:27;6.70;92.10
37846;DHT22;23686;49.828;8.702;2022-12-07T09:55:53;6.70;92.20
37846;DHT22;23686;49.828;8.702;2022-12-07T09:58:23;6.80;94.00
37846;DHT22;23686;49.828;8.702;2022-12-07T10:01:14;6.80;93.90
37846;DHT22;23686;49.828;8.702;2022-12-07T10:03:55;6.80;93.90
37846;DHT22;23686;49.828;8.702;2022-12-07T10:06:24;6.80;93.00
37846;DHT22;23686;49.828;8.702;2022-12-07T10:08:50;6.80;94.60
37846;DHT22;23686;49.828;8.702;2022-12-07T10:11:16;6.80;91.30
37846;DHT22;23686;49.828;8.702;2022-12-07T10:13:48;6.80;90.70
37846;DHT22;23686;49.828;8.702;2022-12-07T10:18:55;6.80;93.00
37846;DHT22;23686;49.828;8.702;2022-12-07T10:21:23;6.80;92.40
37846;DHT22;23686;49.828;8.702;2022-12-07T10:26:36;6.80;91.80
37846;DHT22;23686;49.828;8.702;2022-12-07T10:31:41;6.80;92.40
37846;DHT22;23686;49.828;8.702;2022-12-07T10:34:27;6.80;89.50
37846;DHT22;23686;49.828;8.702;2022-12-07T10:39:52;6.80;89.50
37846;DHT22;23686;49.828;8.702;2022-12-07T10:42:23;6.80;90.30
37846;DHT22;23686;49.828;8.702;2022-12-07T10:45:06;6.80;90.60
37846;DHT22;23686;49.828;8.702;2022-12-07T10:50:04;6.90;91.60
37846;DHT22;23686;49.828;8.702;2022-12-07T11:00:54;7.00;92.10
37846;DHT22;23686;49.828;8.702;2022-12-07T11:15:17;7.20;93.10
37846;DHT22;23686;49.828;8.702;2022-12-07T11:18:18;7.30;93.10
37846;DHT22;23686;49.828;8.702;2022-12-07T11:20:54;7.30;95.30
37846;DHT22;23686;49.828;8.702;2022-12-07T11:34:48;7.50;97.20
37846;DHT22;23686;49.828;8.702;2022-12-07T11:37:21;7.60;96.80
37846;DHT22;23686;49.828;8.702;2022-12-07T11:39:51;7.60;97.20
37846;DHT22;23686;49.828;8.702;2022-12-07T11:42:24;7.60;96.50
37846;DHT22;23686;49.828;8.702;2022-12-07T11:47:50;7.60;98.00
37846;DHT22;23686;49.828;8.702;2022-12-07T11:53:14;7.80;98.60
37846;DHT22;23686;49.828;8.702;2022-12-07T11:55:46;7.80;99.90
37846;DHT22;23686;49.828;8.702;2022-12-07T11:58:39;7.80;99.90
37846;DHT22;23686;49.828;8.702;2022-12-07T12:06:39;7.60;99.90
37846;DHT22;23686;49.828;8.702;2022-12-07T12:09:15;7.60;99.50
37846;DHT22;23686;49.828;8.702;2022-12-07T12:11:55;7.60;99.20
37846;DHT22;23686;49.828;8.702;2022-12-07T12:20:06;7.60;99.10
37846;DHT22;23686;49.828;8.702;2022-12-07T12:22:38;7.50;98.90
37846;DHT22;23686;49.828;8.702;2022-12-07T12:25:15;7.50;98.80
37846;DHT22;23686;49.828;8.702;2022-12-07T12:27:46;7.50;99.90
37846;DHT22;23686;49.828;8.702;2022-12-07T12:30:37;7.40;99.70
37846;DHT22;23686;49.828;8.702;2022-12-07T12:33:27;7.40;99.10
37846;DHT22;23686;49.828;8.702;2022-12-07T12:54:36;7.50;99.90
37846;DHT22;23686;49.828;8.702;2022-12-07T13:02:47;7.40;99.90
37846;DHT22;23686;49.828;8.702;2022-12-07T13:24:10;7.20;97.00
37846;DHT22;23686;49.828;8.702;2022-12-07T13:29:35;7.10;90.00
37846;DHT22;23686;49.828;8.702;2022-12-07T13:31:34;7.10;92.70
37846;DHT22;23686;49.828;8.702;2022-12-07T13:34:27;7.10;92.30
37846;DHT22;23686;49.828;8.702;2022-12-07T13:36:51;7.10;90.60
37846;DHT22;23686;49.828;8.702;2022-12-07T13:39:22;7.10;85.90
37846;DHT22;23686;49.828;8.702;2022-12-07T13:41:54;7.10;86.30
37846;DHT22;23686;49.828;8.702;2022-12-07T13:44:21;7.10;86.40
37846;DHT22;23686;49.828;8.702;2022-12-07T13:49:49;7.00;84.20
37846;DHT22;23686;49.828;8.702;2022-12-07T13:52:22;7.10;82.50
37846;DHT22;23686;49.828;8.702;2022-12-07T13:55:05;7.00;80.90
37846;DHT22;23686;49.828;8.702;2022-12-07T13:57:35;7.00;78.30
37846;DHT22;23686;49.828;8.702;2022-12-07T14:00:13;7.00;76.00
37846;DHT22;23686;49.828;8.702;2022-12-07T14:05:30;6.90;74.80
37846;DHT22;23686;49.828;8.702;2022-12-07T14:08:04;6.90;74.30
37846;DHT22;23686;49.828;8.702;2022-12-07T14:10:35;6.90;73.10
37846;DHT22;23686;49.828;8.702;2022-12-07T14:13:03;6.90;72.50
37846;DHT22;23686;49.828;8.702;2022-12-07T14:15:43;6.90;75.60
37846;DHT22;23686;49.828;8.702;2022-12-07T14:18:26;6.80;74.70
37846;DHT22;23686;49.828;8.702;2022-12-07T14:21:03;6.80;76.30
37846;DHT22;23686;49.828;8.702;2022-12-07T14:23:29;6.80;74.80
37846;DHT22;23686;49.828;8.702;2022-12-07T14:26:10;6.80;72.40
37846;DHT22;23686;49.828;8.702;2022-12-07T14:28:37;6.80;71.90
37846;DHT22;23686;49.828;8.702;2022-12-07T14:31:07;6.70;70.90
37846;DHT22;23686;49.828;8.702;2022-12-07T14:33:35;6.80;68.60
37846;DHT22;23686;49.828;8.702;2022-12-07T14:36:00;6.80;67.30
37846;DHT22;23686;49.828;8.702;2022-12-07T14:38:26;6.80;65.20
37846;DHT22;23686;49.828;8.702;2022-12-07T14:40:53;6.80;66.30
37846;DHT22;23686;49.828;8.702;2022-12-07T14:43:20;6.80;63.60
37846;DHT22;23686;49.828;8.702;2022-12-07T14:45:45;6.80;63.70
37846;DHT22;23686;49.828;8.702;2022-12-07T14:48:13;6.80;64.40
37846;DHT22;23686;49.828;8.702;2022-12-07T14:50:44;6.80;62.70
37846;DHT22;23686;49.828;8.702;2022-12-07T14:53:17;6.80;63.60
37846;DHT22;23686;49.828;8.702;2022-12-07T14:55:43;6.80;61.40
37846;DHT22;23686;49.828;8.702;2022-12-07T14:58:14;6.80;62.70
37846;DHT22;23686;49.828;8.702;2022-12-07T15:00:40;6.70;64.80
37846;DHT22;23686;49.828;8.702;2022-12-07T15:03:06;6.70;61.80
37846;DHT22;23686;49.828;8.702;2022-12-07T15:05:32;6.70;61.90
37846;DHT22;23686;49.828;8.702;2022-12-07T15:07:59;6.70;62.70
37846;DHT22;23686;49.828;8.702;2022-12-07T15:10:27;6.70;64.00
37846;DHT22;23686;49.828;8.702;2022-12-07T15:12:58;6.70;62.10
37846;DHT22;23686;49.828;8.702;2022-12-07T15:15:43;6.70;64.90
37846;DHT22;23686;49.828;8.702;2022-12-07T15:18:09;6.70;68.20
37846;DHT22;23686;49.828;8.702;2022-12-07T15:20:34;6.70;67.80
37846;DHT22;23686;49.828;8.702;2022-12-07T15:23:00;6.70;69.00
37846;DHT22;23686;49.828;8.702;2022-12-07T15:25:25;6.70;72.30
37846;DHT22;23686;49.828;8.702;2022-12-07T15:27:51;6.60;74.00
37846;DHT22;23686;49.828;8.702;2022-12-07T15:30:17;6.70;72.30
37846;DHT22;23686;49.828;8.702;2022-12-07T15:32:42;6.70;75.30
37846;DHT22;23686;49.828;8.702;2022-12-07T15:35:08;6.60;76.80
37846;DHT22;23686;49.828;8.702;2022-12-07T15:37:33;6.60;76.20
37846;DHT22;23686;49.828;8.702;2022-12-07T15:39:59;6.60;77.10
37846;DHT22;23686;49.828;8.702;2022-12-07T15:42:25;6.60;76.30
37846;DHT22;23686;49.828;8.702;2022-12-07T15:44:50;6.60;77.10
37846;DHT22;23686;49.828;8.702;2022-12-07T15:47:43;6.60;73.50
37846;DHT22;23686;49.828;8.702;2022-12-07T15:50:13;6.60;74.30
37846;DHT22;23686;49.828;8.702;2022-12-07T15:52:39;6.50;76.10
37846;DHT22;23686;49.828;8.702;2022-12-07T15:55:05;6.50;75.40
37846;DHT22;23686;49.828;8.702;2022-12-07T15:57:32;6.50;78.10
37846;DHT22;23686;49.828;8.702;2022-12-07T15:59:57;6.50;80.90
37846;DHT22;23686;49.828;8.702;2022-12-07T16:02:23;6.50;79.80
37846;DHT22;23686;49.828;8.702;2022-12-07T16:04:49;6.60;78.20
37846;DHT22;23686;49.828;8.702;2022-12-07T16:07:15;6.60;81.00
37846;DHT22;23686;49.828;8.702;2022-12-07T16:09:42;6.60;82.60
37846;DHT22;23686;49.828;8.702;2022-12-07T16:12:09;6.60;83.90
37846;DHT22;23686;49.828;8.702;2022-12-07T16:14:35;6.60;83.70
37846;DHT22;23686;49.828;8.702;2022-12-07T16:17:01;6.60;85.20
37846;DHT22;23686;49.828;8.702;2022-12-07T16:19:27;6.60;82.70
37846;DHT22;23686;49.828;8.702;2022-12-07T16:21:52;6.60;78.20
37846;DHT22;23686;49.828;8.702;2022-12-07T16:24:18;6.60;73.50
37846;DHT22;23686;49.828;8.702;2022-12-07T16:26:44;6.60;74.60
37846;DHT22;23686;49.828;8.702;2022-12-07T16:29:13;6.60;75.50
37846;DHT22;23686;49.828;8.702;2022-12-07T16:31:39;6.60;75.10
37846;DHT22;23686;49.828;8.702;2022-12-07T16:34:05;6.60;74.70
37846;DHT22;23686;49.828;8.702;2022-12-07T16:36:32;6.60;70.30
37846;DHT22;23686;49.828;8.702;2022-12-07T16:38:58;6.60;69.30
37846;DHT22;23686;49.828;8.702;2022-12-07T16:41:24;6.60;74.00
37846;DHT22;23686;49.828;8.702;2022-12-07T16:43:50;6.60;73.80
37846;DHT22;23686;49.828;8.702;2022-12-07T16:46:16;6.50;79.70
37846;DHT22;23686;49.828;8.702;2022-12-07T16:48:41;6.50;78.40
37846;DHT22;23686;49.828;8.702;2022-12-07T16:51:09;6.40;76.80
37846;DHT22;23686;49.828;8.702;2022-12-07T16:53:36;6.40;80.00
37846;DHT22;23686;49.828;8.702;2022-12-07T16:56:02;6.50;79.80
37846;DHT22;23686;49.828;8.702;2022-12-07T16:58:28;6.40;82.40
37846;DHT22;23686;49.828;8.702;2022-12-07T17:00:54;6.40;83.70
37846;DHT22;23686;49.828;8.702;2022-12-07T17:03:20;6.40;77.30
37846;DHT22;23686;49.828;8.702;2022-12-07T17:05:46;6.40;73.90
37846;DHT22;23686;49.828;8.702;2022-12-07T17:08:12;6.40;77.10
37846;DHT22;23686;49.828;8.702;2022-12-07T17:10:41;6.40;80.60
37846;DHT22;23686;49.828;8.702;2022-12-07T17:13:07;6.40;79.20
37846;DHT22;23686;49.828;8.702;2022-12-07T17:15:58;6.40;74.50
37846;DHT22;23686;49.828;8.702;2022-12-07T17:18:27;6.40;71.80
37846;DHT22;23686;49.828;8.702;2022-12-07T17:20:52;6.40;69.30
37846;DHT22;23686;49.828;8.702;2022-12-07T17:23:18;6.40;73.70
37846;DHT22;23686;49.828;8.702;2022-12-07T17:25:44;6.30;72.20
37846;DHT22;23686;49.828;8.702;2022-12-07T17:28:10;6.30;72.90
37846;DHT22;23686;49.828;8.702;2022-12-07T17:30:35;6.30;74.00
37846;DHT22;23686;49.828;8.702;2022-12-07T17:33:02;6.30;73.10
37846;DHT22;23686;49.828;8.702;2022-12-07T17:35:27;6.30;74.10
37846;DHT22;23686;49.828;8.702;2022-12-07T17:37:53;6.30;73.70
37846;DHT22;23686;49.828;8.702;2022-12-07T17:40:19;6.30;75.90
37846;DHT22;23686;49.828;8.702;2022-12-07T17:42:45;6.20;74.20
37846;DHT22;23686;49.828;8.702;2022-12-07T17:45:14;6.30;73.00
37846;DHT22;23686;49.828;8.702;2022-12-07T17:47:40;6.20;71.70
37846;DHT22;23686;49.828;8.702;2022-12-07T17:50:06;6.20;70.40
37846;DHT22;23686;49.828;8.702;2022-12-07T17:52:32;6.20;72.00
37846;DHT22;23686;49.828;8.702;2022-12-07T17:55:17;6.20;71.10
37846;DHT22;23686;49.828;8.702;2022-12-07T17:57:42;6.20;67.70
37846;DHT22;23686;49.828;8.702;2022-12-07T18:00:09;6.20;72.70
37846;DHT22;23686;49.828;8.702;2022-12-07T18:02:36;6.20;73.90
37846;DHT22;23686;49.828;8.702;2022-12-07T18:05:01;6.10;73.80
37846;DHT22;23686;49.828;8.702;2022-12-07T18:07:27;6.10;75.80
37846;DHT22;23686;49.828;8.702;2022-12-07T18:09:53;6.10;75.40
37846;DHT22;23686;49.828;8.702;2022-12-07T18:12:18;6.10;77.20
37846;DHT22;23686;49.828;8.702;2022-12-07T18:14:44;6.10;76.30
37846;DHT22;23686;49.828;8.702;2022-12-07T18:17:09;6.10;80.10
37846;DHT22;23686;49.828;8.702;2022-12-07T18:19:35;6.10;78.00
37846;DHT22;23686;49.828;8.702;2022-12-07T18:22:03;6.10;75.90